Harrisburg International Airport (MDT/KMDT)

Map

Destinations

Information

Location
Harrisburg, PA
Local Time
20:06 / 8:06 pm
GMT Time
00:06 / 12:06 am
Gates
Unassigned
No FAA reported delays
METAR KMDT 252356Z 06006KT 3SM -DZ BR OVC012 14/13 A2980 RMK AO2 SFC VIS 6 DZB53 SLP091 P0000 60016 T01390128 10144 20133 55001 $
TAF KMDT 252359Z 2600/2624 07010KT P6SM OVC013 FM260200 07010KT 5SM -DZ BR OVC007 FM260400 03005KT 4SM -DZ BR OVC005 FM261700 VRB03KT P6SM OVC015 FM262100 VRB03KT P6SM BKN035